NEODyS-2

Near Earth Objects - Dynamic Site
NEODyS ∴ Observatories ∴ Site 691 ∴ Obs & residuals
Contact »
691  ▹ 
OBSERVATIONS AND RESIDUALS

691-Steward Observatory, Kitt Peak-Spacewatch

Detections | Residuals | Detections & Residuals

[1-200] [201-400] [401-600] [601-800] [801-1000] [1001-1200] [1201-1400] [1401-1600] [1601-1800] [1801-2000] [2001-2200] [2201-2400] [2401-2600] [2601-2800] [2801-3000] [3001-3200] [3201-3400] [3401-3600] [3601-3800] [3801-4000] [4001-4200] [4201-4400] [4401-4600] [4601-4800] [4801-5000] [5001-5200] [5201-5400] [5401-5600] [5601-5800] [5801-6000] [6001-6200] [6201-6400] [6401-6600] [6601-6800] [6801-7000] [7001-7200] [7201-7400] [7401-7600] [7601-7800] [7801-8000] [8001-8200] [8201-8400] [8401-8600] [8601-8800] [8801-9000] [9001-9200] [9201-9400] [9401-9600] [9601-9800] [9801-10000] [10001-10200] [10201-10400] [10401-10600] [10601-10800] [10801-11000] [11001-11200] [11201-11400] [11401-11600] [11601-11800] [11801-12000] [12001-12200] [12201-12400] [12401-12600] [12601-12800] [12801-13000] [13001-13200] [13201-13400] [13401-13600] [13601-13800] [13801-14000] [14001-14200] [14201-14400] [14401-14600] [14601-14800] [14801-15000] [15001-15200] [15201-15400] [15401-15600] [15601-15800] [15801-16000] [16001-16200] [16201-16400] [16401-16600] [16601-16800] [16801-17000] [17001-17200] [17201-17400] [17401-17600] [17601-17800] [17801-18000] [18001-18200] [18201-18400] [18401-18600] [18601-18800] [18801-19000] [19001-19200] [19201-19400] [19401-19600] [19601-19800] [19801-20000] [20001-20200] [20201-20400] [20401-20600] [20601-20800] [20801-21000] [21001-21200] [21201-21400] [21401-21600] [21601-21800] [21801-22000] [22001-22200] [22201-22400] [22401-22600] [22601-22800] [22801-23000] [23001-23200] [23201-23400] [23401-23600] [23601-23800] [23801-24000] [24001-24200] [24201-24400] [24401-24600] [24601-24800] [24801-25000] [25001-25200] [25201-25400] [25401-25600] [25601-25800] [25801-26000] [26001-26200] [26201-26400] [26401-26600] [26601-26800] [26801-27000] [27001-27200] [27201-27400] [27401-27600] [27601-27800] [27801-28000] [28001-28200] [28201-28400] [28401-28600] [28601-28800] [28801-29000] [29001-29200] [29201-29400] [29401-29600] [29601-29800] [29801-30000] [30001-30200] [30201-30400] [30401-30600] [30601-30800] [30801-31000] [31001-31200] [31201-31400] [31401-31600] [31601-31800] [31801-32000] [32001-32200] [32201-32400] [32401-32600] [32601-32800] [32801-33000] [33001-33200] [33201-33400] [33401-33600] [33601-33800] [33801-34000] [34001-34200] [34201-34400] [34401-34600] [34601-34800] [34801-35000] [35001-35200] [35201-35400] [35401-35600] [35601-35800] [35801-36000] [36001-36200] [36201-36400] [36401-36600] [36601-36800] [36801-37000] [37001-37200] [37201-37400] [37401-37600] [37601-37800] [37801-38000] [38001-38200] [38201-38400] [38401-38600] [38601-38800] [38801-39000] [39001-39200] [39201-39400] [39401-39600] [39601-39800] [39801-40000] [40001-40200] [40201-40400] [40401-40600] [40601-40800] [40801-41000] [41001-41200] [41201-41400] [41401-41600] [41601-41800] [41801-42000] [42001-42200] [42201-42400] [42401-42600] [42601-42800] [42801-43000] [43001-43200] [43201-43400] [43401-43600] [43601-43800] [43801-44000] [44001-44200] [44201-44400] [44401-44600] [44601-44800] [44801-45000] [45001-45200] [45201-45400] [45401-45600] [45601-45800] [45801-46000] [46001-46200] [46201-46400] [46401-46600] [46601-46800] [46801-47000] [47001-47200] [47201-47400] [47401-47600] [47601-47800] [47801-48000] [48001-48200] [48201-48400] [48401-48600] [48601-48800] [48801-49000] [49001-49200] [49201-49400] [49401-49600] [49601-49800] [49801-50000] [50001-50200] [50201-50388]

Designation T Tech N Date Right Ascension Declination Apparent Magnitude Star Catalog Site code χ Used A Used M
yr-mo-day precision hr:min:sec precision rms F bias residual deg min sec precision rms F bias residual mag/col rms residual
2002DB4 O C 2018-01-27.10893 1.000E-05 03:32:02.560 1.500E-01 0.500 F -0.255 -0.084 -28° 49' 59.60" 1.000E-01 0.500 F 0.161 0.099 16.8 V 0.70 0.12 o 691 0.26 Yes Yes
2018AM12 O C K 2018-01-27.11142 1.000E-05 03:31:37.330 1.500E-01 0.500 F -0.255 0.896 -29° 06' 05.30" 1.000E-01 0.500 F 0.161 0.130 o 691 1.82 Yes No
2018BP1 O C K 2018-01-27.12938 1.000E-05 07:40:42.460 1.500E-01 0.500 F -0.106 -3.706 +21° 11' 33.40" 1.000E-01 0.500 F 0.359 -0.333 o 691 7.16 No No
2018BP1 O C K 2018-01-27.13728 1.000E-05 07:40:32.900 1.500E-01 0.500 F -0.106 -3.393 +21° 12' 46.10" 1.000E-01 0.500 F 0.359 -0.073 o 691 6.52 No No
2018BP1 O C K 2018-01-27.14519 1.000E-05 07:40:23.230 1.500E-01 0.500 F -0.106 -4.169 +21° 13' 58.20" 1.000E-01 0.500 F 0.359 -0.364 o 691 8.04 No No
2017YF7 O C K 2018-01-27.20952 1.000E-05 09:17:01.750 1.500E-01 0.500 F 0.075 -0.216 +01° 37' 58.80" 1.000E-01 0.500 F 0.197 0.084 o 691 0.47 Yes No
2017YF7 O C K 2018-01-27.21381 1.000E-05 09:17:01.340 1.500E-01 0.500 F 0.075 -0.907 +01° 37' 43.50" 1.000E-01 0.500 F 0.197 -0.242 o 691 1.90 Yes No
2017YF7 O C K 2018-01-27.21810 1.000E-05 09:17:01.040 1.500E-01 0.500 F 0.075 0.089 +01° 37' 28.70" 1.000E-01 0.500 F 0.197 -0.067 o 691 0.22 Yes No
2017YM6 O C 2018-01-27.22248 1.000E-05 08:44:49.810 1.500E-01 0.500 F 0.016 -0.199 +18° 00' 52.50" 1.000E-01 0.500 F 0.130 0.042 19.6 R 0.70 0.86 o 691 0.41 Yes Yes
2017YM6 O C 2018-01-27.22709 1.000E-05 08:44:47.710 1.500E-01 0.500 F 0.016 -0.365 +18° 00' 34.50" 1.000E-01 0.500 F 0.130 -0.128 19.5 R 0.70 0.76 o 691 0.79 Yes Yes
2017YM6 O C 2018-01-27.23172 1.000E-05 08:44:45.630 1.500E-01 0.500 F 0.016 -0.088 +18° 00' 16.70" 1.000E-01 0.500 F 0.130 -0.007 18.7 R 0.70 -0.04 o 691 0.18 Yes Yes
2018BL1 O C K 2018-01-27.23373 1.000E-05 10:00:03.680 1.500E-01 0.500 F 0.056 0.154 +14° 55' 04.50" 1.000E-01 0.500 F 0.260 -0.057 o 691 0.33 Yes No
2018BL1 O C K 2018-01-27.24128 1.000E-05 10:00:05.530 1.500E-01 0.500 F 0.056 0.127 +14° 55' 16.80" 1.000E-01 0.500 F 0.260 -0.165 o 691 0.42 Yes No
2018BL1 O C K 2018-01-27.24882 1.000E-05 10:00:07.410 1.500E-01 0.500 F 0.056 0.620 +14° 55' 29.00" 1.000E-01 0.500 F 0.260 -0.352 o 691 1.44 Yes No
2018AM13 O C K 2018-01-27.25644 1.000E-05 09:51:29.710 1.500E-01 0.500 F 0.075 -0.401 +24° 27' 16.10" 1.000E-01 0.500 F 0.321 0.192 o 691 0.91 Yes No
2018AM13 O C K 2018-01-27.26539 1.000E-05 09:51:28.660 1.500E-01 0.500 F 0.075 -0.526 +24° 27' 56.40" 1.000E-01 0.500 F 0.321 0.044 o 691 1.08 Yes No
2018AM13 O C K 2018-01-27.27433 1.000E-05 09:51:27.620 1.500E-01 0.500 F 0.075 -0.474 +24° 28' 36.80" 1.000E-01 0.500 F 0.321 0.085 o 691 0.99 Yes No
2018BG3 O C 2018-01-27.29083 1.000E-05 09:40:28.480 1.500E-01 0.500 F 0.042 -0.376 +22° 42' 11.50" 1.000E-01 0.500 F 0.239 0.056 19.0 R 0.70 0.33 o 691 0.79 Yes Yes
2018BG3 O C 2018-01-27.29491 1.000E-05 09:40:27.510 1.500E-01 0.500 F 0.042 0.066 +22° 41' 30.20" 1.000E-01 0.500 F 0.239 -0.120 18.7 R 0.70 0.03 o 691 0.29 Yes Yes
2018BG3 O C 2018-01-27.29900 1.000E-05 09:40:26.500 1.500E-01 0.500 F 0.042 0.029 +22° 40' 49.10" 1.000E-01 0.500 F 0.239 0.067 18.9 R 0.70 0.23 o 691 0.16 Yes Yes
2018BN6 O C K 2018-01-27.30200 1.000E-05 08:06:58.390 1.500E-01 0.500 F 0.067 -0.013 +05° 30' 11.70" 1.000E-01 0.500 F 0.087 -0.095 18.3 R 0.70 -0.11 o 691 0.20 Yes Yes
2018BN6 O C K 2018-01-27.30605 1.000E-05 08:06:58.140 1.500E-01 0.500 F 0.067 -0.248 +05° 30' 51.50" 1.000E-01 0.500 F 0.087 0.015 18.2 R 0.70 -0.21 o 691 0.51 Yes Yes
2018BN6 O C K 2018-01-27.31011 1.000E-05 08:06:57.930 1.500E-01 0.500 F 0.067 0.097 +05° 31' 30.90" 1.000E-01 0.500 F 0.087 -0.238 18.4 R 0.70 -0.02 o 691 0.52 Yes Yes
2017YQ3 O C K 2018-01-27.31283 1.000E-05 09:02:53.840 1.500E-01 0.500 F 0.146 -0.029 +04° 35' 51.70" 1.000E-01 0.500 F 0.175 0.090 o 691 0.19 Yes No
2017YQ3 O C K 2018-01-27.32267 1.000E-05 09:02:52.780 1.500E-01 0.500 F 0.146 0.074 +04° 35' 56.10" 1.000E-01 0.500 F 0.175 0.321 o 691 0.67 Yes No
2017YQ3 O C K 2018-01-27.33251 1.000E-05 09:02:51.680 1.500E-01 0.500 F 0.146 -0.417 +04° 36' 00.00" 1.000E-01 0.500 F 0.175 0.053 o 691 0.87 Yes No
2017XB2 O C 2018-01-27.34562 1.000E-05 13:23:06.370 1.500E-01 0.500 F 0.166 -0.125 +22° 54' 53.30" 1.000E-01 0.500 F 0.236 -0.088 19.4 R 0.70 0.60 o 691 0.31 Yes Yes
2017XB2 O C 2018-01-27.34695 1.000E-05 13:23:06.380 1.500E-01 0.500 F 0.166 0.322 +22° 54' 49.50" 1.000E-01 0.500 F 0.236 0.135 18.9 R 0.70 0.10 o 691 0.70 Yes Yes
2017XB2 O C 2018-01-27.34827 1.000E-05 13:23:06.350 1.500E-01 0.500 F 0.166 0.215 +22° 54' 45.30" 1.000E-01 0.500 F 0.236 -0.072 19.4 R 0.70 0.60 o 691 0.45 Yes Yes
2018BG1 O C K 2018-01-27.36229 1.000E-05 08:51:32.160 1.500E-01 0.500 F 0.055 0.361 +15° 22' 24.50" 1.000E-01 0.500 F 0.212 0.035 18.7 R 0.70 0.69 o 691 0.81 Yes Yes
2018BG1 O C K 2018-01-27.36509 1.000E-05 08:51:36.450 1.500E-01 0.500 F 0.055 -0.253 +15° 22' 57.50" 1.000E-01 0.500 F 0.212 0.178 18.7 R 0.70 0.69 o 691 0.67 Yes Yes
2018BG1 O C K 2018-01-27.36694 1.000E-05 08:51:39.310 1.500E-01 0.500 F 0.055 -0.291 +15° 23' 19.00" 1.000E-01 0.500 F 0.212 -0.012 18.6 R 0.70 0.59 o 691 0.65 Yes Yes
2018AF3 O C K 2018-01-27.38572 1.000E-05 08:25:33.390 1.500E-01 0.500 F 0.046 -0.107 +15° 09' 40.30" 1.000E-01 0.500 F 0.208 0.197 o 691 0.46 Yes No
2018AF3 O C K 2018-01-27.39548 1.000E-05 08:25:32.210 1.500E-01 0.500 F 0.046 0.091 +15° 09' 56.90" 1.000E-01 0.500 F 0.208 -0.252 o 691 0.55 Yes No
2018AF3 O C K 2018-01-27.40523 1.000E-05 08:25:31.030 1.500E-01 0.500 F 0.046 0.223 +15° 10' 14.00" 1.000E-01 0.500 F 0.208 -0.163 o 691 0.57 Yes No
2018BK1 O C K 2018-01-27.41559 1.000E-05 08:30:11.300 1.500E-01 0.500 F 0.167 -0.336 +06° 56' 03.30" 1.000E-01 0.500 F 0.127 0.308 o 691 0.91 Yes No
2018BK1 O C K 2018-01-27.41938 1.000E-05 08:30:10.650 1.500E-01 0.500 F 0.167 -0.047 +06° 56' 00.20" 1.000E-01 0.500 F 0.127 0.202 o 691 0.42 Yes No
2018BK1 O C K 2018-01-27.42317 1.000E-05 08:30:09.980 1.500E-01 0.500 F 0.167 -0.059 +06° 55' 57.00" 1.000E-01 0.500 F 0.127 -0.004 o 691 0.12 Yes No
2004CK39 O C 2018-01-27.43895 1.000E-05 11:22:52.770 1.500E-01 0.500 F 0.104 -0.516 +27° 25' 44.30" 1.000E-01 0.500 F 0.261 0.127 19.6 V 0.70 0.15 o 691 1.07 Yes Yes
2006AL4 O C K 2018-01-27.43895 1.000E-05 11:22:05.580 1.500E-01 0.500 F 0.083 0.277 +27° 45' 15.30" 1.000E-01 0.500 F 0.175 0.581 o 691 1.39 Yes No
2004CK39 O C 2018-01-27.44192 1.000E-05 11:22:52.860 1.500E-01 0.500 F 0.104 -0.389 +27° 25' 48.00" 1.000E-01 0.500 F 0.261 0.071 19.4 V 0.70 -0.05 o 691 0.80 Yes Yes
2006AL4 O C K 2018-01-27.44487 1.000E-05 11:22:10.970 1.500E-01 0.500 F 0.083 0.837 +27° 44' 48.50" 1.000E-01 0.500 F 0.175 -0.428 o 691 2.05 Yes No
2004CK39 O C 2018-01-27.44487 1.000E-05 11:22:52.930 1.500E-01 0.500 F 0.104 -0.520 +27° 25' 51.20" 1.000E-01 0.500 F 0.261 -0.459 19.9 V 0.70 0.45 o 691 1.40 Yes Yes
2007PV27 O C K 2018-01-27.47252 1.000E-05 16:15:16.720 1.500E-01 0.500 F 0.270 -0.677 +03° 44' 01.10" 1.000E-01 0.500 F 0.137 0.296 o 691 1.57 Yes No
2007PV27 O C K 2018-01-27.47475 1.000E-05 16:15:15.930 1.500E-01 0.500 F 0.270 0.646 +03° 43' 44.50" 1.000E-01 0.500 F 0.137 0.197 o 691 1.56 Yes No
2007PV27 O C K 2018-01-27.47698 1.000E-05 16:15:15.060 1.500E-01 0.500 F 0.270 0.781 +03° 43' 27.40" 1.000E-01 0.500 F 0.137 -0.399 o 691 1.86 Yes No
2017YS8 O C 2018-01-27.47976 1.000E-05 15:05:26.830 1.500E-01 0.500 F 0.180 0.045 +25° 14' 39.10" 1.000E-01 0.500 F 0.110 0.043 17.7 R 0.70 0.14 o 691 0.13 Yes Yes
2017YS8 O C 2018-01-27.48199 1.000E-05 15:05:27.970 1.500E-01 0.500 F 0.180 0.260 +25° 14' 24.10" 1.000E-01 0.500 F 0.110 0.194 17.6 R 0.70 0.04 o 691 0.67 Yes Yes
2017YS8 O C 2018-01-27.48534 1.000E-05 15:05:29.630 1.500E-01 0.500 F 0.180 -0.125 +25° 14' 01.30" 1.000E-01 0.500 F 0.110 0.171 17.6 R 0.70 0.04 o 691 0.44 Yes Yes
2018BK3 O C K 2018-01-27.49136 1.000E-05 12:06:42.900 1.500E-01 0.500 F 0.310 0.363 -16° 57' 37.10" 1.000E-01 0.500 F 0.034 -0.092 o 691 0.76 Yes No
2018BK3 O C K 2018-01-27.50564 1.000E-05 12:06:42.300 1.500E-01 0.500 F 0.310 -1.686 -16° 58' 25.60" 1.000E-01 0.500 F 0.034 -0.778 o 691 3.63 No No
2018AJ O C 2018-01-27.51261 1.000E-05 12:25:23.180 1.500E-01 0.500 F 0.486 0.186 -31° 03' 40.50" 1.000E-01 0.500 F 0.303 -0.076 17.3 R 0.70 -0.56 o 691 0.42 Yes Yes
2018AJ O C 2018-01-27.51447 1.000E-05 12:25:24.950 1.500E-01 0.500 F 0.486 0.026 -31° 04' 18.70" 1.000E-01 0.500 F 0.303 -0.002 17.2 R 0.70 -0.66 o 691 0.05 Yes Yes
2018AJ O C 2018-01-27.51727 1.000E-05 12:25:27.660 1.500E-01 0.500 F 0.486 0.354 -31° 05' 16.40" 1.000E-01 0.500 F 0.303 -0.181 17.6 R 0.70 -0.27 o 691 0.83 Yes Yes
2018AL13 O C K 2018-01-27.52097 1.000E-05 13:06:33.020 1.500E-01 0.500 F 0.226 0.429 +02° 11' 30.50" 1.000E-01 0.500 F 0.283 0.051 o 691 0.87 Yes No
2018AL13 O C K 2018-01-27.52960 1.000E-05 13:06:35.240 1.500E-01 0.500 F 0.271 -0.499 +02° 11' 24.60" 1.000E-01 0.500 F 0.271 -0.055 o 691 1.01 Yes No
2018AL13 O C K 2018-01-27.53825 1.000E-05 13:06:37.560 1.500E-01 0.500 F 0.271 0.025 +02° 11' 18.60" 1.000E-01 0.500 F 0.271 -0.258 o 691 0.52 Yes No
2017YC8 O C 2018-01-27.54715 1.000E-05 13:21:45.100 1.500E-01 0.500 F 0.100 -0.062 -20° 12' 52.60" 1.000E-01 0.500 F -0.185 0.021 18.6 V 0.70 -0.01 o 691 0.13 Yes Yes
2017YC8 O C 2018-01-27.54938 1.000E-05 13:21:45.610 1.500E-01 0.500 F 0.100 -0.317 -20° 13' 11.70" 1.000E-01 0.500 F -0.185 0.268 18.5 V 0.70 -0.11 o 691 0.85 Yes Yes
2017YC8 O C 2018-01-27.55160 1.000E-05 13:21:46.160 1.500E-01 0.500 F 0.100 0.023 -20° 13' 31.20" 1.000E-01 0.500 F -0.185 0.026 18.7 V 0.70 0.09 o 691 0.07 Yes Yes
2018AM12 O C 2018-01-28.08887 1.000E-05 03:36:40.490 1.500E-01 0.500 F -0.290 -0.388 -29° 48' 13.60" 1.000E-01 0.500 F 0.154 0.088 19.9 V 0.70 0.39 o 691 0.80 Yes Yes
2018AM12 O C 2018-01-28.09861 1.000E-05 03:36:43.160 1.500E-01 0.500 F -0.290 0.092 -29° 48' 37.60" 1.000E-01 0.500 F 0.154 0.051 19.9 V 0.70 0.39 o 691 0.21 Yes Yes
2018AM12 O C 2018-01-28.10837 1.000E-05 03:36:45.740 1.500E-01 0.500 F -0.290 -0.631 -29° 49' 01.20" 1.000E-01 0.500 F 0.154 0.330 19.7 V 0.70 0.19 o 691 1.44 Yes Yes
2018BG1 O C K 2018-01-28.13019 1.000E-05 09:12:20.140 1.500E-01 0.500 F 0.089 2.111 +17° 42' 51.40" 1.000E-01 0.500 F 0.214 -0.046 o 691 4.03 No No
2018BG1 O C K 2018-01-28.13679 1.000E-05 09:12:30.180 1.500E-01 0.500 F 0.089 2.532 +17° 44' 02.10" 1.000E-01 0.500 F 0.214 0.248 o 691 4.84 No No
2018BG1 O C K 2018-01-28.14340 1.000E-05 09:12:40.170 1.500E-01 0.500 F 0.089 2.490 +17° 45' 12.20" 1.000E-01 0.500 F 0.214 -0.044 o 691 4.75 No No
2018BG3 O C K 2018-01-28.15118 1.000E-05 09:37:24.790 1.500E-01 0.500 F 0.100 -0.112 +20° 00' 51.80" 1.000E-01 0.500 F 0.478 -0.297 o 691 0.67 Yes No
2018BG3 O C K 2018-01-28.15654 1.000E-05 09:37:23.430 1.500E-01 0.500 F 0.100 -0.245 +19° 59' 46.90" 1.000E-01 0.500 F 0.478 -0.257 o 691 0.75 Yes No
2018BG3 O C K 2018-01-28.16191 1.000E-05 09:37:22.050 1.500E-01 0.500 F 0.100 -0.475 +19° 58' 41.60" 1.000E-01 0.500 F 0.478 -0.399 o 691 1.32 Yes No
2017YF7 O C K 2018-01-28.16898 1.000E-05 09:15:59.040 1.500E-01 0.500 F 0.141 -0.087 +00° 42' 33.90" 1.000E-01 0.500 F 0.178 -0.089 o 691 0.25 Yes No
2017YF7 O C K 2018-01-28.17817 1.000E-05 09:15:58.310 1.500E-01 0.500 F 0.141 0.035 +00° 42' 02.30" 1.000E-01 0.500 F 0.178 -0.208 o 691 0.43 Yes No
2017YF7 O C K 2018-01-28.18736 1.000E-05 09:15:57.540 1.500E-01 0.500 F 0.141 -0.244 +00° 41' 31.00" 1.000E-01 0.500 F 0.178 -0.031 o 691 0.50 Yes No
2016CW31 O C K 2018-01-28.19727 1.000E-05 10:38:01.580 1.500E-01 0.500 F 0.142 -0.237 +24° 03' 42.90" 1.000E-01 0.500 F 0.286 0.079 o 691 0.50 Yes No
2016CW31 O C K 2018-01-28.20605 1.000E-05 10:38:00.920 1.500E-01 0.500 F 0.142 -0.712 +24° 03' 24.30" 1.000E-01 0.500 F 0.286 0.226 o 691 1.50 Yes No
2016CW31 O C K 2018-01-28.21481 1.000E-05 10:38:00.310 1.500E-01 0.500 F 0.142 -0.445 +24° 03' 05.40" 1.000E-01 0.500 F 0.286 0.050 o 691 0.90 Yes No
2018BL1 O C K 2018-01-28.22358 1.000E-05 10:04:37.810 1.500E-01 0.500 F 0.085 0.723 +15° 23' 09.50" 1.000E-01 0.500 F 0.271 -0.159 o 691 1.50 Yes No
2018BL1 O C K 2018-01-28.24226 1.000E-05 10:04:43.120 1.500E-01 0.500 F 0.085 0.729 +15° 23' 45.20" 1.000E-01 0.500 F 0.271 0.176 o 691 1.51 Yes No
2018BL1 O C K 2018-01-28.26094 1.000E-05 10:04:48.420 1.500E-01 0.500 F 0.085 0.884 +15° 24' 20.20" 1.000E-01 0.500 F 0.271 -0.167 o 691 1.82 Yes No
2018AM13 O C K 2018-01-28.27987 1.000E-05 09:49:40.530 1.500E-01 0.500 F 0.109 -1.225 +25° 42' 00.50" 1.000E-01 0.500 F 0.295 -0.019 17.6 R 0.70 -2.48 o 691 2.52 Yes No
2018AM13 O C K 2018-01-28.30414 1.000E-05 09:49:37.600 1.500E-01 0.500 F 0.092 -1.983 +25° 43' 45.30" 1.000E-01 0.500 F 0.261 -0.045 16.9 R 0.70 -3.18 o 691 3.87 No No
2018AM13 O C K 2018-01-28.32829 1.000E-05 09:49:34.740 1.500E-01 0.500 F 0.092 -1.756 +25° 45' 28.90" 1.000E-01 0.500 F 0.261 -0.420 17.6 R 0.70 -2.48 o 691 3.51 No No
2017XB2 O C 2018-01-28.35506 1.000E-05 13:22:50.060 1.500E-01 0.500 F 0.181 -0.103 +22° 02' 09.30" 1.000E-01 0.500 F 0.281 0.100 19.0 R 0.70 0.27 o 691 0.29 Yes Yes
2017XB2 O C 2018-01-28.35878 1.000E-05 13:22:49.980 1.500E-01 0.500 F 0.181 -0.057 +22° 01' 57.30" 1.000E-01 0.500 F 0.281 -0.045 19.0 R 0.70 0.27 o 691 0.15 Yes Yes
2017XB2 O C 2018-01-28.36126 1.000E-05 13:22:49.920 1.500E-01 0.500 F 0.181 -0.115 +22° 01' 49.40" 1.000E-01 0.500 F 0.281 -0.038 18.8 R 0.70 0.07 o 691 0.24 Yes Yes
2011MU O C 2018-01-28.36249 1.000E-05 13:39:24.430 1.500E-01 0.500 F 0.097 -0.019 +13° 12' 33.30" 1.000E-01 0.500 F 0.147 0.251 19.4 R 0.70 0.38 o 691 0.52 Yes Yes
2011MU O C 2018-01-28.36673 1.000E-05 13:39:22.490 1.500E-01 0.500 F 0.097 0.028 +13° 12' 51.20" 1.000E-01 0.500 F 0.147 -0.502 19.4 R 0.70 0.38 o 691 1.03 Yes Yes
2011MU O C 2018-01-28.37096 1.000E-05 13:39:20.560 1.500E-01 0.500 F 0.097 0.174 +13° 13' 10.20" 1.000E-01 0.500 F 0.147 -0.107 19.6 R 0.70 0.58 o 691 0.42 Yes Yes
2009CS5 O C K 2018-01-28.43220 1.000E-05 10:07:30.620 1.500E-01 0.500 F 0.108 -0.757 +16° 52' 16.10" 1.000E-01 0.500 F 0.285 -0.292 o 691 1.64 Yes No
2009CS5 O C K 2018-01-28.44830 1.000E-05 10:07:28.110 1.500E-01 0.500 F 0.108 -0.588 +16° 52' 11.50" 1.000E-01 0.500 F 0.285 0.023 o 691 1.19 Yes No
2009CS5 O C K 2018-01-28.46437 1.000E-05 10:07:25.620 1.500E-01 0.500 F 0.108 -0.219 +16° 52' 06.00" 1.000E-01 0.500 F 0.285 -0.542 o 691 1.18 Yes No
2015FH120 O C 2018-01-28.50286 1.000E-05 17:04:35.890 1.500E-01 0.500 F 0.018 -0.466 +23° 52' 18.20" 1.000E-01 0.500 F 0.161 -0.132 18.6 R 0.70 0.19 o 691 0.98 Yes Yes
2015FH120 O C 2018-01-28.50613 1.000E-05 17:04:34.730 1.500E-01 0.500 F 0.018 -0.499 +23° 52' 23.50" 1.000E-01 0.500 F 0.161 0.285 18.7 R 0.70 0.29 o 691 1.16 Yes Yes
2015FH120 O C 2018-01-28.50940 1.000E-05 17:04:33.610 1.500E-01 0.500 F 0.018 0.028 +23° 52' 28.10" 1.000E-01 0.500 F 0.161 0.005 18.8 R 0.70 0.39 o 691 0.06 Yes Yes
2017TQ3 O C K 2018-01-28.51273 1.000E-05 15:32:31.760 1.500E-01 0.500 F 0.128 -1.125 +26° 23' 49.40" 1.000E-01 0.500 F 0.229 0.545 o 691 2.61 Yes No
2017TQ3 O C K 2018-01-28.52971 1.000E-05 15:32:29.870 1.500E-01 0.500 F 0.128 -1.221 +26° 24' 02.40" 1.000E-01 0.500 F 0.229 -0.452 o 691 2.73 Yes No
2017TQ3 O C K 2018-01-28.54669 1.000E-05 15:32:28.060 1.500E-01 0.500 F 0.128 -0.153 +26° 24' 16.20" 1.000E-01 0.500 F 0.229 -0.565 o 691 1.22 Yes No
2018AG13 O C K 2018-02-04.08428 1.000E-05 01:59:00.700 1.500E-01 0.500 F -0.261 0.131 +13° 40' 24.50" 1.000E-01 0.500 F 0.187 -0.702 19.8 R 0.70 -0.97 o 691 1.49 Yes Yes
2017VX1 O C K 2018-02-04.09061 1.000E-05 01:09:29.100 1.500E-01 0.500 F -0.245 -0.126 -02° 06' 10.50" 1.000E-01 0.500 F 0.298 -0.318 19.8 R 0.70 0.23 o 691 0.70 Yes Yes
2018AG13 O C K 2018-02-04.10625 1.000E-05 01:59:04.380 1.500E-01 0.500 F -0.261 0.161 +13° 41' 45.90" 1.000E-01 0.500 F 0.187 0.274 19.6 R 0.70 -1.17 o 691 0.66 Yes Yes
2018AG13 O C K 2018-02-04.12811 1.000E-05 01:59:08.020 1.500E-01 0.500 F -0.261 -0.220 +13° 43' 05.30" 1.000E-01 0.500 F 0.187 -0.296 19.6 R 0.70 -1.17 o 691 0.77 Yes Yes
2017VX1 O C K 2018-02-04.13441 1.000E-05 01:09:30.820 1.500E-01 0.500 F -0.245 -0.542 -02° 10' 32.00" 1.000E-01 0.500 F 0.298 -0.177 19.4 R 0.70 -0.17 o 691 1.16 Yes Yes
2002LX O C 2018-02-04.15202 1.000E-05 03:29:35.100 1.500E-01 0.500 F -0.288 -0.828 -01° 37' 34.10" 1.000E-01 0.500 F 0.052 0.028 20.7 V 0.70 1.02 o 691 1.74 Yes Yes
2017SS19 O C 2018-02-04.15453 1.000E-05 04:26:23.390 1.500E-01 0.500 F -0.216 -0.266 +00° 22' 44.80" 1.000E-01 0.500 F 0.290 0.027 20.3 V 0.70 0.24 o 691 0.54 Yes Yes
2002LX O C 2018-02-04.15723 1.000E-05 03:29:32.940 1.500E-01 0.500 F -0.288 -0.322 -01° 37' 46.50" 1.000E-01 0.500 F 0.052 0.266 20.3 V 0.70 0.62 o 691 0.88 Yes Yes
2017SS19 O C 2018-02-04.15968 1.000E-05 04:26:24.730 1.500E-01 0.500 F -0.216 -0.279 +00° 22' 48.60" 1.000E-01 0.500 F 0.290 0.149 19.8 V 0.70 -0.26 o 691 0.64 Yes Yes
2002LX O C 2018-02-04.16238 1.000E-05 03:29:30.800 1.500E-01 0.500 F -0.288 0.090 -01° 37' 59.00" 1.000E-01 0.500 F 0.052 0.260 20.3 V 0.70 0.62 o 691 0.58 Yes Yes
2017SS19 O C 2018-02-04.16484 1.000E-05 04:26:26.080 1.500E-01 0.500 F -0.216 -0.183 +00° 22' 52.10" 1.000E-01 0.500 F 0.290 -0.036 20.0 V 0.70 -0.06 o 691 0.38 Yes Yes
2018BY2 O C 2018-02-04.17129 1.000E-05 05:23:14.020 1.500E-01 0.500 F -0.159 -0.251 -20° 05' 03.00" 1.000E-01 0.500 F -0.294 -0.211 19.4 V 0.70 -0.20 o 691 0.66 Yes Yes
2018BZ2 O C K 2018-02-04.17319 1.000E-05 05:19:43.260 1.500E-01 0.500 F -0.236 -0.431 -02° 55' 09.40" 1.000E-01 0.500 F 0.017 -0.057 o 691 0.87 Yes No
2016SA O C K 2018-02-04.17743 1.000E-05 06:18:24.270 1.500E-01 0.500 F -0.062 -0.083 -25° 13' 40.30" 1.000E-01 0.500 F 0.063 0.081 o 691 0.24 Yes No
2018BY2 O C 2018-02-04.18334 1.000E-05 05:23:13.550 1.500E-01 0.500 F -0.159 -0.104 -20° 05' 06.10" 1.000E-01 0.500 F -0.294 0.114 19.4 V 0.70 -0.20 o 691 0.31 Yes Yes
2018BZ2 O C K 2018-02-04.18519 1.000E-05 05:19:45.540 1.500E-01 0.500 F -0.236 -0.549 -02° 54' 57.00" 1.000E-01 0.500 F 0.017 0.290 o 691 1.25 Yes No
2016SA O C K 2018-02-04.18991 1.000E-05 06:18:21.630 1.500E-01 0.500 F -0.062 -0.189 -25° 13' 42.60" 1.000E-01 0.500 F 0.063 0.078 o 691 0.43 Yes No
2018BY2 O C 2018-02-04.19575 1.000E-05 05:23:13.060 1.500E-01 0.500 F -0.159 -0.068 -20° 05' 09.20" 1.000E-01 0.500 F -0.294 0.474 19.6 V 0.70 0.00 o 691 0.96 Yes Yes
2018BZ2 O C K 2018-02-04.19759 1.000E-05 05:19:47.950 1.500E-01 0.500 F -0.236 0.134 -02° 54' 44.50" 1.000E-01 0.500 F 0.017 0.333 o 691 0.72 Yes No
2016SA O C K 2018-02-04.20225 1.000E-05 06:18:19.010 1.500E-01 0.500 F -0.062 -0.415 -25° 13' 44.60" 1.000E-01 0.500 F 0.063 0.299 o 691 1.07 Yes No
2018BK1 O C K 2018-02-04.21088 1.000E-05 08:07:48.100 1.500E-01 0.500 F 0.093 -0.643 +05° 18' 23.20" 1.000E-01 0.500 F 0.030 -0.018 o 691 1.29 Yes No
2011EB7 O C 2018-02-04.21690 1.000E-05 08:20:13.530 1.500E-01 0.500 F -0.070 -0.265 +01° 42' 50.50" 1.000E-01 0.500 F 0.153 0.036 20.0 V 0.70 0.41 o 691 0.54 Yes Yes
2017YM6 O C K 2018-02-04.21825 1.000E-05 07:54:54.090 1.500E-01 0.500 F -0.080 -0.112 +09° 41' 16.50" 1.000E-01 0.500 F -0.027 0.086 19.3 R 0.70 -0.38 o 691 0.29 Yes Yes
2017YF7 O C 2018-02-04.22092 1.000E-05 09:08:08.030 1.500E-01 0.500 F 0.085 -0.414 -05° 24' 36.40" 1.000E-01 0.500 F 0.029 0.144 20.3 V 0.70 0.20 o 691 0.89 Yes Yes
2011EB7 O C 2018-02-04.22987 1.000E-05 08:20:13.740 1.500E-01 0.500 F -0.070 -0.195 +01° 43' 18.50" 1.000E-01 0.500 F 0.153 0.064 19.7 V 0.70 0.11 o 691 0.42 Yes Yes
2017YM6 O C K 2018-02-04.23123 1.000E-05 07:54:49.660 1.500E-01 0.500 F -0.080 -0.603 +09° 40' 33.10" 1.000E-01 0.500 F -0.027 0.457 19.7 R 0.70 0.02 o 691 1.54 Yes Yes
2017YF7 O C 2018-02-04.23384 1.000E-05 09:08:06.910 1.500E-01 0.500 F 0.085 -0.107 -05° 25' 12.20" 1.000E-01 0.500 F 0.029 0.577 20.3 V 0.70 0.20 o 691 1.19 Yes Yes
2018BK1 O C K 2018-02-04.23680 1.000E-05 08:07:43.610 1.500E-01 0.500 F 0.093 -0.471 +05° 18' 04.70" 1.000E-01 0.500 F 0.030 -0.151 o 691 1.00 Yes No
2011EB7 O C 2018-02-04.24282 1.000E-05 08:20:13.930 1.500E-01 0.500 F -0.070 -0.364 +01° 43' 46.00" 1.000E-01 0.500 F 0.153 -0.352 19.9 V 0.70 0.31 o 691 1.02 Yes Yes
2017YF7 O C 2018-02-04.24681 1.000E-05 09:08:05.770 1.500E-01 0.500 F 0.085 0.183 -05° 25' 48.90" 1.000E-01 0.500 F 0.029 0.197 20.6 V 0.70 0.50 o 691 0.55 Yes Yes
2018BN6 O C K 2018-02-04.27773 1.000E-05 08:12:02.270 1.500E-01 0.500 F -0.001 -0.154 +11° 27' 51.00" 1.000E-01 0.500 F 0.149 -0.476 o 691 1.03 Yes No
2018BN6 O C K 2018-02-04.29935 1.000E-05 08:12:01.590 1.500E-01 0.500 F -0.001 0.091 +11° 28' 07.30" 1.000E-01 0.500 F 0.149 -0.562 o 691 1.17 Yes No
Jasonwheeler O C 2018-02-04.37726 1.000E-05 09:27:09.820 1.500E-01 0.500 F 0.152 -0.555 +17° 00' 39.00" 1.000E-01 0.500 F 0.284 -0.189 20.2 V 0.70 -0.38 o 691 1.17 Yes Yes
Jasonwheeler O C 2018-02-04.38662 1.000E-05 09:27:09.200 1.500E-01 0.500 F 0.152 -0.116 +17° 00' 43.60" 1.000E-01 0.500 F 0.284 0.010 20.3 V 0.70 -0.28 o 691 0.23 Yes Yes
Jasonwheeler O C 2018-02-04.39574 1.000E-05 09:27:08.560 1.500E-01 0.500 F 0.152 -0.207 +17° 00' 47.80" 1.000E-01 0.500 F 0.284 -0.074 20.4 V 0.70 -0.18 o 691 0.44 Yes Yes
2018CJ O C K 2018-02-04.47500 1.000E-05 09:47:06.660 1.500E-01 0.500 F 0.209 0.283 +10° 14' 36.00" 1.000E-01 0.500 F 0.224 0.571 o 691 1.29 Yes No
2002RN38 O C 2018-02-04.47500 1.000E-05 09:43:02.620 1.500E-01 0.500 F 0.209 -0.302 +10° 11' 05.00" 1.000E-01 0.500 F 0.224 -0.445 19.6 V 0.70 0.49 o 691 1.08 Yes Yes
2018CJ O C K 2018-02-04.48972 1.000E-05 09:47:07.010 1.500E-01 0.500 F 0.209 -0.217 +10° 14' 03.30" 1.000E-01 0.500 F 0.224 -0.104 o 691 0.49 Yes No
2002RN38 O C 2018-02-04.48972 1.000E-05 09:43:01.520 1.500E-01 0.500 F 0.209 -0.113 +10° 11' 08.00" 1.000E-01 0.500 F 0.224 -0.619 19.5 V 0.70 0.39 o 691 1.26 Yes Yes
2002RN38 O C 2018-02-04.50437 1.000E-05 09:43:00.410 1.500E-01 0.500 F 0.209 -0.203 +10° 11' 11.90" 1.000E-01 0.500 F 0.224 0.130 19.6 V 0.70 0.49 o 691 0.48 Yes Yes
2017RD15 O C K 2018-02-05.09687 1.000E-05 01:41:38.950 1.500E-01 0.500 F -0.092 0.036 +10° 38' 06.40" 1.000E-01 0.500 F 0.290 -0.326 o 691 0.66 Yes No
2017RD15 O C K 2018-02-05.11471 1.000E-05 01:41:42.580 1.500E-01 0.500 F -0.092 -0.016 +10° 38' 40.30" 1.000E-01 0.500 F 0.290 -0.024 o 691 0.06 Yes No
2017RD15 O C K 2018-02-05.13253 1.000E-05 01:41:46.230 1.500E-01 0.500 F -0.092 0.202 +10° 39' 13.90" 1.000E-01 0.500 F 0.290 0.032 o 691 0.41 Yes No
2017NU6 O C K 2018-02-05.13954 1.000E-05 04:17:37.770 1.500E-01 0.500 F -0.154 0.013 +04° 26' 39.60" 1.000E-01 0.500 F 0.266 0.029 o 691 0.07 Yes No
2017SS19 O C H 2018-02-05.14477 1.000E-05 04:30:45.580 1.500E-01 0.500 F -0.201 -0.038 +00° 34' 30.90" 1.000E-01 0.500 F 0.291 -0.092 o 691 0.20 Yes No
2018BP O C K 2018-02-05.14597 1.000E-05 04:26:44.670 1.500E-01 0.500 F -0.207 0.259 +12° 52' 44.30" 1.000E-01 0.500 F 0.214 0.131 o 691 0.58 Yes No
2017NU6 O C K 2018-02-05.15512 1.000E-05 04:17:40.910 1.500E-01 0.500 F -0.154 1.133 +04° 27' 00.90" 1.000E-01 0.500 F 0.266 0.127 o 691 2.38 Yes No
2017SS19 O C H 2018-02-05.16033 1.000E-05 04:30:49.570 1.500E-01 0.500 F -0.201 -0.176 +00° 34' 41.80" 1.000E-01 0.500 F 0.291 -0.261 o 691 0.63 Yes No
2018BP O C K 2018-02-05.16153 1.000E-05 04:26:48.830 1.500E-01 0.500 F -0.207 0.088 +12° 53' 03.40" 1.000E-01 0.500 F 0.214 0.036 o 691 0.19 Yes No
2018BZ2 O C K 2018-02-05.16618 1.000E-05 05:22:56.350 1.500E-01 0.500 F -0.190 -0.056 -02° 38' 42.50" 1.000E-01 0.500 F -0.015 0.233 o 691 0.48 Yes No
2017NU6 O C K 2018-02-05.17065 1.000E-05 04:17:43.910 1.500E-01 0.500 F -0.154 0.289 +04° 27' 21.90" 1.000E-01 0.500 F 0.266 0.008 o 691 0.60 Yes No
2017SS19 O C H 2018-02-05.17587 1.000E-05 04:30:53.570 1.500E-01 0.500 F -0.201 -0.107 +00° 34' 53.20" 1.000E-01 0.500 F 0.291 0.085 20.0 R 0.70 0.31 o 691 0.28 Yes Yes
2018BP O C K 2018-02-05.17707 1.000E-05 04:26:53.030 1.500E-01 0.500 F -0.207 0.553 +12° 53' 22.70" 1.000E-01 0.500 F 0.214 0.213 o 691 1.19 Yes No
2018BZ2 O C K 2018-02-05.18160 1.000E-05 05:22:59.240 1.500E-01 0.500 F -0.190 0.326 -02° 38' 27.70" 1.000E-01 0.500 F -0.015 -0.128 o 691 0.70 Yes No
2018BQ O C K 2018-02-05.18665 1.000E-05 08:34:10.040 1.500E-01 0.500 F -0.008 0.287 -22° 27' 49.30" 1.000E-01 0.500 F -0.082 0.038 o 691 0.60 Yes No
2017YM6 O C K 2018-02-05.19191 1.000E-05 07:49:56.230 1.500E-01 0.500 F 0.055 0.052 +08° 47' 14.10" 1.000E-01 0.500 F 0.076 -0.150 o 691 0.32 Yes No
2018BQ O C K 2018-02-05.19924 1.000E-05 08:34:19.170 1.500E-01 0.500 F -0.008 0.734 -22° 28' 07.20" 1.000E-01 0.500 F -0.082 0.432 o 691 1.77 Yes No
2017YM6 O C K 2018-02-05.20443 1.000E-05 07:49:52.190 1.500E-01 0.500 F 0.055 -0.097 +08° 46' 33.60" 1.000E-01 0.500 F 0.076 0.001 o 691 0.20 Yes No
2018BQ O C K 2018-02-05.21175 1.000E-05 08:34:28.150 1.500E-01 0.500 F -0.008 0.882 -22° 28' 25.60" 1.000E-01 0.500 F -0.082 -0.361 o 691 1.98 Yes No
2017YM6 O C K 2018-02-05.21692 1.000E-05 07:49:48.220 1.500E-01 0.500 F 0.055 0.738 +08° 45' 52.70" 1.000E-01 0.500 F 0.076 -0.312 o 691 1.64 Yes No
2017YF7 O C 2018-02-05.23361 1.000E-05 09:07:02.280 1.500E-01 0.500 F 0.059 -0.356 -06° 10' 41.70" 1.000E-01 0.500 F 0.046 0.028 20.4 V 0.70 0.26 o 691 0.72 Yes Yes
2018AF3 O C K 2018-02-05.24073 1.000E-05 08:09:25.000 1.500E-01 0.500 F -0.013 -0.185 +19° 26' 14.50" 1.000E-01 0.500 F 0.263 -0.055 o 691 0.40 Yes No
2017YF7 O C 2018-02-05.25396 1.000E-05 09:07:00.490 1.500E-01 0.500 F 0.059 -0.140 -06° 11' 36.70" 1.000E-01 0.500 F 0.046 -0.126 20.3 V 0.70 0.16 o 691 0.38 Yes Yes
2018AF13 O C K 2018-02-05.25530 1.000E-05 09:03:32.780 1.500E-01 0.500 F -0.008 0.085 -02° 06' 27.90" 1.000E-01 0.500 F 0.086 -0.191 21.0 R 0.70 0.05 o 691 0.45 Yes Yes
2018AF3 O C K 2018-02-05.26103 1.000E-05 08:09:22.700 1.500E-01 0.500 F -0.013 -0.239 +19° 26' 48.30" 1.000E-01 0.500 F 0.263 -0.296 o 691 0.78 Yes No
2017YF7 O C 2018-02-05.27433 1.000E-05 09:06:58.640 1.500E-01 0.500 F 0.059 -0.405 -06° 12' 31.50" 1.000E-01 0.500 F 0.046 -0.176 20.1 V 0.70 -0.04 o 691 0.90 Yes Yes
2018AF13 O C K 2018-02-05.27567 1.000E-05 09:03:29.450 1.500E-01 0.500 F -0.008 -0.080 -02° 06' 57.70" 1.000E-01 0.500 F 0.086 0.065 o 691 0.22 Yes No
2018AF3 O C K 2018-02-05.28162 1.000E-05 08:09:20.400 1.500E-01 0.500 F -0.013 0.191 +19° 27' 22.90" 1.000E-01 0.500 F 0.263 -0.080 o 691 0.43 Yes No
2018CJ O C 2018-02-05.32096 1.000E-05 09:47:45.160 1.500E-01 0.500 F 0.272 -0.232 +09° 42' 58.80" 1.000E-01 0.500 F 0.178 0.054 20.3 V 0.70 0.12 o 691 0.48 Yes Yes
2018AL18 O C H 2018-02-05.32669 1.000E-05 11:06:03.130 1.500E-01 0.500 F 0.150 -1.112 -08° 29' 45.40" 1.000E-01 0.500 F -0.002 -0.281 o 691 2.31 Yes No
2018CJ O C 2018-02-05.33529 1.000E-05 09:47:45.430 1.500E-01 0.500 F 0.272 -0.621 +09° 42' 24.80" 1.000E-01 0.500 F 0.178 -0.069 19.7 V 0.70 -0.47 o 691 1.27 Yes Yes
2018AL18 O C H 2018-02-05.34108 1.000E-05 11:06:00.330 1.500E-01 0.500 F 0.150 0.228 -08° 30' 13.70" 1.000E-01 0.500 F -0.002 -0.009 21.1 R 0.70 0.28 o 691 0.46 Yes Yes
2018CJ O C 2018-02-05.34985 1.000E-05 09:47:45.740 1.500E-01 0.500 F 0.272 -0.471 +09° 41' 49.70" 1.000E-01 0.500 F 0.178 -0.608 20.0 V 0.70 -0.17 o 691 1.56 Yes Yes
2018AL18 O C H 2018-02-05.35592 1.000E-05 11:05:57.160 1.500E-01 0.500 F 0.150 -2.499 -08° 30' 43.60" 1.000E-01 0.500 F -0.002 -0.483 20.9 R 0.70 0.08 o 691 5.06 No Yes
2016CW31 O C 2018-02-05.36528 1.000E-05 10:25:16.620 1.500E-01 0.500 F 0.105 -0.425 +17° 55' 58.60" 1.000E-01 0.500 F 0.285 -0.102 19.9 V 0.70 0.16 o 691 0.88 Yes Yes
2017WS12 O C H 2018-02-05.37447 1.000E-05 09:17:41.590 1.500E-01 0.500 F 0.037 0.152 +18° 15' 44.30" 1.000E-01 0.500 F 0.198 -0.431 21.6 R 0.70 0.60 o 691 0.99 Yes Yes
2016CW31 O C 2018-02-05.37678 1.000E-05 10:25:15.110 1.500E-01 0.500 F 0.105 -0.074 +17° 55' 21.10" 1.000E-01 0.500 F 0.285 0.070 19.6 V 0.70 -0.13 o 691 0.21 Yes Yes
2017WS12 O C H 2018-02-05.38566 1.000E-05 09:17:41.450 1.500E-01 0.500 F 0.037 0.182 +18° 16' 04.50" 1.000E-01 0.500 F 0.198 -0.510 21.6 R 0.70 0.60 o 691 1.17 Yes Yes
2016CW31 O C 2018-02-05.38775 1.000E-05 10:25:13.630 1.500E-01 0.500 F 0.105 -0.298 +17° 54' 44.80" 1.000E-01 0.500 F 0.285 -0.230 19.6 V 0.70 -0.13 o 691 0.76 Yes Yes
2017WS12 O C H 2018-02-05.39637 1.000E-05 09:17:41.340 1.500E-01 0.500 F 0.037 0.502 +18° 16' 24.80" 1.000E-01 0.500 F 0.198 0.425 21.2 R 0.70 0.20 o 691 1.40 Yes Yes
2018CY O C H 2018-02-05.40707 1.000E-05 09:15:09.870 1.500E-01 0.500 F 0.088 0.058 +01° 29' 38.20" 1.000E-01 0.500 F 0.128 -0.299 20.8 R 0.70 -0.19 o 691 0.61 Yes Yes
2018CM O C K 2018-02-05.41091 1.000E-05 09:07:55.040 1.500E-01 0.500 F 0.136 -0.058 +09° 25' 54.20" 1.000E-01 0.500 F 0.139 0.056 18.0 R 0.70 0.30 o 691 0.17 Yes Yes
2018CM O C K 2018-02-05.42462 1.000E-05 09:08:59.270 1.500E-01 0.500 F 0.136 0.582 +09° 20' 46.60" 1.000E-01 0.500 F 0.139 -0.303 18.0 R 0.70 0.31 o 691 1.42 Yes Yes
2018CM O C K 2018-02-05.42648 1.000E-05 09:09:08.020 1.500E-01 0.500 F 0.136 -0.006 +09° 20' 04.90" 1.000E-01 0.500 F 0.139 0.104 17.8 R 0.70 0.11 o 691 0.21 Yes Yes
2018CY O C H 2018-02-05.43447 1.000E-05 09:15:05.740 1.500E-01 0.500 F 0.088 0.015 +01° 29' 36.60" 1.000E-01 0.500 F 0.128 0.059 20.4 R 0.70 -0.59 o 691 0.12 Yes Yes
2018CN O C K 2018-02-05.44606 1.000E-05 09:37:34.290 1.500E-01 0.500 F 0.098 0.127 +29° 43' 17.00" 1.000E-01 0.500 F 0.192 0.401 o 691 0.86 Yes No
2018CX O C K 2018-02-05.45034 1.000E-05 08:29:34.150 1.500E-01 0.500 F 0.047 -0.204 +28° 36' 50.50" 1.000E-01 0.500 F 0.207 -0.167 19.0 R 0.70 0.06 o 691 0.53 Yes Yes
2018CX O C K 2018-02-05.46242 1.000E-05 08:29:31.430 1.500E-01 0.500 F 0.047 0.110 +28° 34' 47.20" 1.000E-01 0.500 F 0.207 -0.110 19.5 R 0.70 0.57 o 691 0.32 Yes Yes
2018CN O C K 2018-02-05.47024 1.000E-05 09:37:42.300 1.500E-01 0.500 F 0.098 0.334 +29° 50' 16.60" 1.000E-01 0.500 F 0.192 0.334 o 691 0.97 Yes No
2018CX O C K 2018-02-05.47452 1.000E-05 08:29:28.730 1.500E-01 0.500 F 0.047 -0.049 +28° 32' 43.30" 1.000E-01 0.500 F 0.207 0.182 19.3 R 0.70 0.37 o 691 0.38 Yes Yes
2018BO3 O C K 2018-02-05.47893 1.000E-05 11:58:14.430 1.500E-01 0.500 F 0.186 -0.187 +28° 19' 04.70" 1.000E-01 0.500 F 0.309 0.144 o 691 0.48 Yes No
2018BL1 O C K 2018-02-05.48733 1.000E-05 11:48:07.190 1.500E-01 0.500 F 0.142 0.124 +24° 11' 51.50" 1.000E-01 0.500 F 0.291 0.015 o 691 0.26 Yes No
2018BO3 O C K 2018-02-05.49429 1.000E-05 11:58:14.790 1.500E-01 0.500 F 0.186 0.120 +28° 18' 26.30" 1.000E-01 0.500 F 0.309 0.035 o 691 0.25 Yes No
2018BL1 O C K 2018-02-05.50270 1.000E-05 11:48:34.360 1.500E-01 0.500 F 0.142 1.050 +24° 13' 34.10" 1.000E-01 0.500 F 0.291 0.039 o 691 2.22 Yes No
2015DP155 O C H 2018-02-05.50759 1.000E-05 11:55:22.510 1.500E-01 0.500 F 0.213 0.423 +18° 28' 52.10" 1.000E-01 0.500 F 0.354 0.053 20.9 R 0.70 0.19 o 691 0.85 Yes Yes
2018BO3 O C K 2018-02-05.50950 1.000E-05 11:58:15.100 1.500E-01 0.500 F 0.186 -0.261 +28° 17' 48.40" 1.000E-01 0.500 F 0.309 0.164 o 691 0.62 Yes No
2018BL1 O C K 2018-02-05.51792 1.000E-05 11:49:01.320 1.500E-01 0.500 F 0.142 0.528 +24° 15' 15.50" 1.000E-01 0.500 F 0.291 0.134 o 691 1.15 Yes No
2015DP155 O C H 2018-02-05.52280 1.000E-05 11:55:23.460 1.500E-01 0.500 F 0.213 0.279 +18° 29' 08.20" 1.000E-01 0.500 F 0.354 0.097 20.7 R 0.70 -0.01 o 691 0.59 Yes Yes
2018CD1 O C H 2018-02-05.52531 1.000E-05 10:39:26.560 1.500E-01 0.500 F 0.051 -0.260 +02° 49' 12.20" 1.000E-01 0.500 F 0.096 -0.864 21.4 R 0.70 0.79 o 691 1.89 Yes Yes
2011MU O C K 2018-02-05.52731 1.000E-05 12:38:36.900 1.500E-01 0.500 F 0.143 -0.147 +21° 47' 37.10" 1.000E-01 0.500 F 0.245 0.067 o 691 0.33 Yes No
2010FL O C H 2018-02-05.53245 1.000E-05 12:47:21.640 1.500E-01 0.500 F 0.169 -0.425 +18° 58' 36.40" 1.000E-01 0.500 F 0.219 0.028 21.7 R 0.70 0.67 o 691 0.86 Yes Yes
2018CD1 O C H 2018-02-05.53505 1.000E-05 10:39:26.310 1.500E-01 0.500 F 0.051 -0.182 +02° 48' 34.20" 1.000E-01 0.500 F 0.096 -0.908 21.3 R 0.70 0.69 o 691 1.93 Yes Yes
2011MU O C K 2018-02-05.53699 1.000E-05 12:38:32.570 1.500E-01 0.500 F 0.143 -0.327 +21° 48' 07.00" 1.000E-01 0.500 F 0.245 0.102 o 691 0.70 Yes No
2010FL O C H 2018-02-05.54214 1.000E-05 12:47:22.140 1.500E-01 0.500 F 0.169 0.050 +18° 58' 44.20" 1.000E-01 0.500 F 0.219 0.349 21.2 R 0.70 0.17 o 691 0.71 Yes Yes

[1-200] [201-400] [401-600] [601-800] [801-1000] [1001-1200] [1201-1400] [1401-1600] [1601-1800] [1801-2000] [2001-2200] [2201-2400] [2401-2600] [2601-2800] [2801-3000] [3001-3200] [3201-3400] [3401-3600] [3601-3800] [3801-4000] [4001-4200] [4201-4400] [4401-4600] [4601-4800] [4801-5000] [5001-5200] [5201-5400] [5401-5600] [5601-5800] [5801-6000] [6001-6200] [6201-6400] [6401-6600] [6601-6800] [6801-7000] [7001-7200] [7201-7400] [7401-7600] [7601-7800] [7801-8000] [8001-8200] [8201-8400] [8401-8600] [8601-8800] [8801-9000] [9001-9200] [9201-9400] [9401-9600] [9601-9800] [9801-10000] [10001-10200] [10201-10400] [10401-10600] [10601-10800] [10801-11000] [11001-11200] [11201-11400] [11401-11600] [11601-11800] [11801-12000] [12001-12200] [12201-12400] [12401-12600] [12601-12800] [12801-13000] [13001-13200] [13201-13400] [13401-13600] [13601-13800] [13801-14000] [14001-14200] [14201-14400] [14401-14600] [14601-14800] [14801-15000] [15001-15200] [15201-15400] [15401-15600] [15601-15800] [15801-16000] [16001-16200] [16201-16400] [16401-16600] [16601-16800] [16801-17000] [17001-17200] [17201-17400] [17401-17600] [17601-17800] [17801-18000] [18001-18200] [18201-18400] [18401-18600] [18601-18800] [18801-19000] [19001-19200] [19201-19400] [19401-19600] [19601-19800] [19801-20000] [20001-20200] [20201-20400] [20401-20600] [20601-20800] [20801-21000] [21001-21200] [21201-21400] [21401-21600] [21601-21800] [21801-22000] [22001-22200] [22201-22400] [22401-22600] [22601-22800] [22801-23000] [23001-23200] [23201-23400] [23401-23600] [23601-23800] [23801-24000] [24001-24200] [24201-24400] [24401-24600] [24601-24800] [24801-25000] [25001-25200] [25201-25400] [25401-25600] [25601-25800] [25801-26000] [26001-26200] [26201-26400] [26401-26600] [26601-26800] [26801-27000] [27001-27200] [27201-27400] [27401-27600] [27601-27800] [27801-28000] [28001-28200] [28201-28400] [28401-28600] [28601-28800] [28801-29000] [29001-29200] [29201-29400] [29401-29600] [29601-29800] [29801-30000] [30001-30200] [30201-30400] [30401-30600] [30601-30800] [30801-31000] [31001-31200] [31201-31400] [31401-31600] [31601-31800] [31801-32000] [32001-32200] [32201-32400] [32401-32600] [32601-32800] [32801-33000] [33001-33200] [33201-33400] [33401-33600] [33601-33800] [33801-34000] [34001-34200] [34201-34400] [34401-34600] [34601-34800] [34801-35000] [35001-35200] [35201-35400] [35401-35600] [35601-35800] [35801-36000] [36001-36200] [36201-36400] [36401-36600] [36601-36800] [36801-37000] [37001-37200] [37201-37400] [37401-37600] [37601-37800] [37801-38000] [38001-38200] [38201-38400] [38401-38600] [38601-38800] [38801-39000] [39001-39200] [39201-39400] [39401-39600] [39601-39800] [39801-40000] [40001-40200] [40201-40400] [40401-40600] [40601-40800] [40801-41000] [41001-41200] [41201-41400] [41401-41600] [41601-41800] [41801-42000] [42001-42200] [42201-42400] [42401-42600] [42601-42800] [42801-43000] [43001-43200] [43201-43400] [43401-43600] [43601-43800] [43801-44000] [44001-44200] [44201-44400] [44401-44600] [44601-44800] [44801-45000] [45001-45200] [45201-45400] [45401-45600] [45601-45800] [45801-46000] [46001-46200] [46201-46400] [46401-46600] [46601-46800] [46801-47000] [47001-47200] [47201-47400] [47401-47600] [47601-47800] [47801-48000] [48001-48200] [48201-48400] [48401-48600] [48601-48800] [48801-49000] [49001-49200] [49201-49400] [49401-49600] [49601-49800] [49801-50000] [50001-50200] [50201-50388]